Allenwood, New York
Current Conditions -  °F | °C
As of 3:51 AM on Saturday 22 Nov 2014 (Local Time) from KLGA Reporting Station
Clear Clear  
Wind Chill: 24°   Ceiling: Unl
Heat Index: 31°   Visibility: 10mi
Dew Point: 10°   Wind: 7mph
Humidity: 42%   Direction: 280°W
Pressure: 30.48"   Gusts: NA
Location:  40.786°N, 73.7291°W
Report Text: KLGA 220851Z 28006KT 10SM CLR M01/M12 A3048 RMK AO2 SLP320 T10061122 58008
Loading
Personal Weather Stations






























Interactive Weather Map New forecast layout! Learn more

10-Day Weather Forecast

Advertisements
Track Severe Weather on mobile